createdAt,value
2019-04-20T00:01:50.592Z,93.00
2019-04-20T00:04:24.729Z,93.20
2019-04-20T00:06:54.274Z,93.30
2019-04-20T00:09:26.573Z,93.60
2019-04-20T00:12:03.848Z,94.60
2019-04-20T00:14:29.592Z,95.00
2019-04-20T00:16:56.905Z,95.10
2019-04-20T00:19:35.393Z,95.50
2019-04-20T00:22:14.908Z,95.50
2019-04-20T00:25:04.044Z,95.90
2019-04-20T00:27:52.080Z,96.60
2019-04-20T00:30:25.039Z,96.30
2019-04-20T00:32:47.902Z,96.80
2019-04-20T00:35:06.356Z,97.30
2019-04-20T00:37:36.201Z,97.40
2019-04-20T00:40:07.791Z,97.80
2019-04-20T00:42:45.240Z,97.90
2019-04-20T00:45:15.959Z,97.90
2019-04-20T00:47:47.880Z,98.00
2019-04-20T00:50:29.844Z,98.20
2019-04-20T00:52:55.521Z,98.60
2019-04-20T00:55:15.336Z,98.40
2019-04-20T00:57:53.035Z,98.80
2019-04-20T01:00:31.288Z,99.40
2019-04-20T01:03:01.250Z,99.50
2019-04-20T01:05:58.440Z,99.70
2019-04-20T01:08:11.191Z,99.80
2019-04-20T01:10:47.736Z,99.90
2019-04-20T01:13:17.331Z,99.90
2019-04-20T01:15:51.649Z,99.90
2019-04-20T01:18:16.384Z,99.90
2019-04-20T01:20:47.267Z,99.90
2019-04-20T01:23:20.940Z,99.90
2019-04-20T01:25:55.813Z,99.90
2019-04-20T01:28:37.546Z,99.90
2019-04-20T01:31:00.213Z,99.90
2019-04-20T01:33:32.054Z,99.90
2019-04-20T01:36:10.398Z,99.90
2019-04-20T01:38:40.119Z,99.90
2019-04-20T01:40:57.076Z,99.90
2019-04-20T01:43:29.050Z,99.90
2019-04-20T01:46:04.779Z,99.90
2019-04-20T01:48:34.043Z,99.90
2019-04-20T01:51:07.209Z,99.90
2019-04-20T01:53:58.476Z,99.90
2019-04-20T01:56:18.103Z,99.90
2019-04-20T01:59:02.690Z,99.90
2019-04-20T02:01:34.310Z,99.90
2019-04-20T02:04:15.781Z,99.90
2019-04-20T02:06:48.121Z,99.90
2019-04-20T02:09:18.708Z,99.90
2019-04-20T02:11:47.353Z,99.90
2019-04-20T02:14:26.618Z,99.90
2019-04-20T02:16:52.750Z,99.90
2019-04-20T02:19:30.693Z,99.90
2019-04-20T02:22:02.623Z,99.90
2019-04-20T02:24:21.565Z,99.90
2019-04-20T02:26:51.923Z,99.90
2019-04-20T02:29:44.303Z,99.90
2019-04-20T02:35:09.341Z,99.90
2019-04-20T02:37:56.610Z,99.90
2019-04-20T02:40:15.928Z,99.90
2019-04-20T02:45:27.825Z,99.90
2019-04-20T02:48:14.099Z,99.90
2019-04-20T02:50:20.691Z,99.90
2019-04-20T02:52:56.504Z,99.90
2019-04-20T02:55:23.517Z,99.90
2019-04-20T03:00:17.818Z,99.90
2019-04-20T03:02:41.576Z,99.90
2019-04-20T03:05:10.251Z,99.90
2019-04-20T03:07:50.336Z,99.90
2019-04-20T03:10:18.874Z,99.90
2019-04-20T03:12:50.539Z,99.90
2019-04-20T03:15:22.153Z,99.90
2019-04-20T03:17:51.237Z,99.90
2019-04-20T03:20:32.003Z,99.90
2019-04-20T03:23:17.486Z,99.90
2019-04-20T03:25:53.442Z,99.90
2019-04-20T03:28:21.587Z,99.90
2019-04-20T03:34:03.474Z,99.90
2019-04-20T03:36:12.440Z,99.90
2019-04-20T03:38:33.090Z,99.90
2019-04-20T03:40:57.419Z,99.90
2019-04-20T03:43:13.918Z,99.90
2019-04-20T03:45:51.822Z,99.90
2019-04-20T03:48:33.693Z,99.90
2019-04-20T03:51:08.966Z,99.90
2019-04-20T03:53:39.495Z,99.90
2019-04-20T03:56:34.878Z,99.90
2019-04-20T03:59:14.085Z,99.90
2019-04-20T04:02:15.003Z,99.90
2019-04-20T04:04:33.911Z,99.90
2019-04-20T04:06:49.920Z,99.90
2019-04-20T04:09:25.688Z,99.90
2019-04-20T04:11:58.498Z,99.90
2019-04-20T04:14:17.751Z,99.90
2019-04-20T04:16:51.306Z,99.90
2019-04-20T04:19:25.186Z,99.90
2019-04-20T04:22:07.520Z,99.90
2019-04-20T04:24:31.428Z,99.90
2019-04-20T04:27:05.711Z,99.90
2019-04-20T04:29:44.206Z,99.90
2019-04-20T04:32:21.097Z,99.90
2019-04-20T04:34:45.890Z,99.90
2019-04-20T04:37:17.714Z,99.90
2019-04-20T04:39:56.054Z,99.90
2019-04-20T04:42:22.285Z,99.90
2019-04-20T04:44:43.311Z,99.90
2019-04-20T04:47:08.378Z,99.90
2019-04-20T04:49:40.054Z,99.90
2019-04-20T04:52:12.650Z,99.90
2019-04-20T04:54:47.515Z,99.90
2019-04-20T04:57:09.828Z,99.90
2019-04-20T04:59:40.363Z,99.90
2019-04-20T05:02:09.928Z,99.90
2019-04-20T05:05:18.014Z,99.90
2019-04-20T05:07:43.738Z,99.90
2019-04-20T05:10:03.557Z,99.90
2019-04-20T05:12:35.069Z,99.90
2019-04-20T05:15:14.380Z,99.90
2019-04-20T05:18:00.210Z,99.90
2019-04-20T05:20:31.719Z,99.90
2019-04-20T05:23:08.535Z,99.90
2019-04-20T05:26:01.764Z,99.90
2019-04-20T05:28:24.349Z,99.90
2019-04-20T05:30:51.980Z,99.90
2019-04-20T05:33:27.869Z,99.90
2019-04-20T05:36:09.942Z,99.90
2019-04-20T05:38:41.996Z,99.90
2019-04-20T05:41:11.738Z,99.90
2019-04-20T05:43:41.484Z,99.90
2019-04-20T05:46:24.458Z,99.90
2019-04-20T05:48:50.514Z,99.90
2019-04-20T05:51:25.625Z,99.90
2019-04-20T05:53:52.025Z,99.90
2019-04-20T05:56:30.494Z,99.90
2019-04-20T05:58:58.068Z,99.90
2019-04-20T06:01:25.004Z,99.90
2019-04-20T06:03:56.815Z,99.90
2019-04-20T06:06:35.466Z,99.90
2019-04-20T06:09:05.488Z,99.90
2019-04-20T06:11:32.567Z,99.90
2019-04-20T06:13:59.933Z,99.90
2019-04-20T06:16:45.223Z,99.90
2019-04-20T06:19:24.366Z,99.90
2019-04-20T06:21:52.931Z,99.90
2019-04-20T06:24:28.979Z,99.90
2019-04-20T06:29:23.907Z,99.90
2019-04-20T06:31:59.344Z,99.90
2019-04-20T06:34:33.414Z,99.90
2019-04-20T06:37:01.011Z,99.90
2019-04-20T06:39:40.416Z,99.90
2019-04-20T06:42:09.838Z,99.90
2019-04-20T06:44:37.037Z,99.90
2019-04-20T06:47:15.816Z,99.90
2019-04-20T06:49:51.612Z,99.90
2019-04-20T06:52:34.411Z,99.90
2019-04-20T06:54:54.748Z,99.90
2019-04-20T06:57:29.199Z,99.90
2019-04-20T07:00:05.807Z,99.90
2019-04-20T07:04:59.370Z,99.90
2019-04-20T07:07:29.876Z,99.90
2019-04-20T07:12:33.170Z,99.90
2019-04-20T07:14:55.499Z,99.90
2019-04-20T07:17:45.534Z,99.90
2019-04-20T07:20:09.855Z,99.90
2019-04-20T07:23:11.945Z,99.90
2019-04-20T07:25:19.353Z,99.90
2019-04-20T07:27:53.603Z,99.90
2019-04-20T07:30:19.350Z,99.90
2019-04-20T07:32:58.007Z,99.50
2019-04-20T07:35:25.652Z,98.20
2019-04-20T07:38:21.297Z,98.90
2019-04-20T07:40:24.699Z,97.90
2019-04-20T07:42:58.938Z,97.60
2019-04-20T07:45:33.177Z,96.80
2019-04-20T07:48:07.809Z,96.30
2019-04-20T07:50:25.074Z,95.20
2019-04-20T07:52:58.614Z,94.50
2019-04-20T07:55:47.526Z,92.70
2019-04-20T07:58:02.571Z,94.00
2019-04-20T08:00:48.598Z,92.80
2019-04-20T08:03:20.144Z,91.80
2019-04-20T08:05:39.255Z,91.60
2019-04-20T08:08:21.013Z,92.40
2019-04-20T08:10:51.065Z,92.60
2019-04-20T08:16:00.629Z,91.00
2019-04-20T08:18:27.164Z,91.40
2019-04-20T08:20:59.620Z,92.70
2019-04-20T08:23:29.969Z,91.70
2019-04-20T08:25:49.787Z,90.20
2019-04-20T08:28:34.970Z,90.60
2019-04-20T08:31:26.912Z,92.00
2019-04-20T08:34:15.168Z,89.50
2019-04-20T08:36:40.518Z,90.40
2019-04-20T08:41:38.511Z,90.60
2019-04-20T08:46:49.515Z,89.80
2019-04-20T08:49:17.367Z,86.50
2019-04-20T08:51:49.614Z,83.40
2019-04-20T08:54:14.070Z,84.30
2019-04-20T08:56:38.277Z,79.70
2019-04-20T08:58:59.509Z,83.80
2019-04-20T09:01:33.815Z,79.80
2019-04-20T09:04:09.751Z,81.60
2019-04-20T09:06:47.017Z,81.10
2019-04-20T09:09:31.835Z,77.90
2019-04-20T09:11:55.524Z,77.50
2019-04-20T09:14:21.293Z,76.60
2019-04-20T09:17:01.536Z,77.50
2019-04-20T09:19:36.755Z,74.40
2019-04-20T09:22:14.746Z,71.60
2019-04-20T09:24:51.474Z,72.50
2019-04-20T09:27:15.691Z,70.50
2019-04-20T09:29:40.715Z,68.80
2019-04-20T09:32:31.258Z,68.80
2019-04-20T09:35:09.799Z,69.50
2019-04-20T09:37:43.321Z,69.70
2019-04-20T09:40:28.286Z,66.70
2019-04-20T09:42:39.565Z,65.00
2019-04-20T09:45:18.084Z,66.30
2019-04-20T09:47:47.860Z,63.20
2019-04-20T09:50:31.829Z,63.90
2019-04-20T09:53:02.470Z,64.00
2019-04-20T09:55:29.438Z,65.20
2019-04-20T09:58:01.495Z,65.20
2019-04-20T10:00:38.399Z,64.40
2019-04-20T10:02:52.633Z,62.50
2019-04-20T10:05:23.272Z,62.80
2019-04-20T10:07:55.989Z,60.40
2019-04-20T10:10:31.375Z,62.70
2019-04-20T10:12:56.392Z,61.20
2019-04-20T10:15:27.853Z,59.70
2019-04-20T10:17:57.191Z,57.50
2019-04-20T10:20:30.927Z,57.20
2019-04-20T10:22:58.454Z,58.10
2019-04-20T10:25:28.696Z,58.40
2019-04-20T10:27:58.379Z,56.80
2019-04-20T10:30:28.493Z,54.90
2019-04-20T10:32:59.390Z,55.70
2019-04-20T10:35:29.724Z,55.40
2019-04-20T10:38:05.306Z,57.60
2019-04-20T10:40:46.361Z,57.10
2019-04-20T10:43:08.040Z,57.10
2019-04-20T10:45:37.598Z,55.90
2019-04-20T10:48:07.129Z,56.10
2019-04-20T10:50:36.829Z,57.30
2019-04-20T10:53:07.842Z,56.50
2019-04-20T10:55:37.775Z,54.60
2019-04-20T10:58:07.458Z,53.30
2019-04-20T11:00:43.819Z,52.90
2019-04-20T11:03:15.704Z,53.40
2019-04-20T11:05:46.768Z,53.40
2019-04-20T11:08:16.860Z,55.40
2019-04-20T11:10:57.921Z,51.10
2019-04-20T11:13:19.295Z,53.20
2019-04-20T11:15:48.944Z,52.20
2019-04-20T11:18:21.740Z,52.20
2019-04-20T11:20:57.418Z,49.80
2019-04-20T11:23:28.652Z,50.40
2019-04-20T11:25:58.511Z,49.70
2019-04-20T11:28:28.216Z,50.00
2019-04-20T11:30:58.534Z,51.00
2019-04-20T11:33:29.926Z,49.60
2019-04-20T11:36:01.114Z,51.60
2019-04-20T11:38:30.781Z,49.30
2019-04-20T11:41:10.606Z,49.90
2019-04-20T11:43:31.626Z,48.40
2019-04-20T11:46:01.130Z,48.60
2019-04-20T11:48:31.701Z,48.40
2019-04-20T11:51:01.424Z,49.80
2019-04-20T11:53:32.274Z,49.50
2019-04-20T11:56:02.550Z,48.20
2019-04-20T11:58:33.143Z,46.90
2019-04-20T12:01:11.055Z,48.50
2019-04-20T12:03:47.872Z,47.90
2019-04-20T12:06:08.636Z,47.30
2019-04-20T12:08:41.924Z,47.70
2019-04-20T12:11:23.060Z,50.20
2019-04-20T12:13:42.724Z,47.60
2019-04-20T12:16:12.385Z,46.40
2019-04-20T12:18:42.140Z,48.60
2019-04-20T12:21:12.749Z,46.00
2019-04-20T12:23:42.486Z,47.00
2019-04-20T12:26:13.051Z,48.80
2019-04-20T12:28:43.366Z,48.40
2019-04-20T12:31:19.619Z,47.80
2019-04-20T12:33:44.349Z,47.90
2019-04-20T12:36:14.732Z,47.20
2019-04-20T12:38:46.173Z,45.10
2019-04-20T12:41:16.153Z,46.30
2019-04-20T12:43:45.892Z,45.50
2019-04-20T12:46:18.287Z,45.50
2019-04-20T12:48:47.424Z,46.10
2019-04-20T12:51:17.560Z,45.90
2019-04-20T12:53:48.462Z,45.40
2019-04-20T12:56:18.385Z,45.70
2019-04-20T12:58:49.412Z,45.60
2019-04-20T13:01:21.088Z,47.80
2019-04-20T13:03:50.314Z,45.10
2019-04-20T13:06:21.480Z,45.80
2019-04-20T13:08:55.524Z,44.90
2019-04-20T13:11:38.558Z,46.40
2019-04-20T13:14:34.665Z,45.20
2019-04-20T13:17:04.266Z,46.10
2019-04-20T13:19:35.160Z,45.80
2019-04-20T13:22:05.349Z,45.30
2019-04-20T13:24:34.937Z,45.60
2019-04-20T13:27:04.825Z,45.40
2019-04-20T13:29:35.089Z,46.20
2019-04-20T13:32:05.466Z,44.50
2019-04-20T13:34:36.100Z,45.40
2019-04-20T13:37:06.404Z,45.00
2019-04-20T13:39:36.048Z,45.80
2019-04-20T13:42:12.116Z,46.60
2019-04-20T13:44:36.975Z,44.00
2019-04-20T13:47:07.250Z,44.80
2019-04-20T13:49:37.129Z,42.80
2019-04-20T13:52:06.891Z,42.70
2019-04-20T13:54:37.979Z,43.20
2019-04-20T13:57:10.024Z,42.70
2019-04-20T13:59:44.075Z,42.70
2019-04-20T14:02:33.092Z,42.90
2019-04-20T14:05:04.674Z,44.40
2019-04-20T14:07:35.643Z,42.90
2019-04-20T14:10:06.800Z,42.90
2019-04-20T14:12:39.324Z,43.00
2019-04-20T14:15:09.092Z,43.70
2019-04-20T14:17:39.204Z,43.50
2019-04-20T14:20:15.044Z,44.60
2019-04-20T14:22:41.102Z,43.20
2019-04-20T14:25:11.178Z,44.10
2019-04-20T14:27:40.762Z,44.10
2019-04-20T14:30:11.361Z,42.30
2019-04-20T14:32:40.983Z,41.70
2019-04-20T14:35:11.341Z,42.20
2019-04-20T14:37:41.663Z,42.60
2019-04-20T14:40:12.602Z,41.60
2019-04-20T14:42:47.782Z,40.10
2019-04-20T14:45:14.493Z,40.70
2019-04-20T14:47:44.062Z,40.60
2019-04-20T14:50:17.918Z,42.00
2019-04-20T14:52:47.700Z,41.20
2019-04-20T14:55:19.137Z,41.90
2019-04-20T14:57:49.786Z,41.70
2019-04-20T15:00:45.797Z,41.60
2019-04-20T15:03:36.727Z,41.90
2019-04-20T15:06:05.506Z,41.00
2019-04-20T15:08:36.630Z,41.70
2019-04-20T15:11:07.321Z,42.10
2019-04-20T15:13:38.500Z,42.70
2019-04-20T15:16:08.669Z,42.30
2019-04-20T15:18:54.644Z,42.90
2019-04-20T15:21:27.127Z,43.90
2019-04-20T15:23:57.477Z,44.10
2019-04-20T15:26:27.122Z,43.50
2019-04-20T15:28:56.714Z,44.60
2019-04-20T15:31:26.442Z,44.60
2019-04-20T15:33:57.068Z,43.70
2019-04-20T15:36:28.363Z,44.70
2019-04-20T15:38:59.018Z,44.60
2019-04-20T15:41:29.435Z,45.00
2019-04-20T15:43:59.496Z,45.20
2019-04-20T15:46:31.346Z,44.60
2019-04-20T15:49:01.905Z,44.70
2019-04-20T15:51:31.998Z,44.30
2019-04-20T15:54:01.971Z,44.50
2019-04-20T15:56:31.624Z,44.50
2019-04-20T15:59:02.250Z,45.30
2019-04-20T16:01:36.631Z,44.40
2019-04-20T16:04:11.796Z,45.00
2019-04-20T16:06:39.283Z,44.80
2019-04-20T16:09:10.333Z,45.40
2019-04-20T16:11:41.176Z,46.00
2019-04-20T16:14:10.875Z,46.80
2019-04-20T16:16:40.462Z,46.40
2019-04-20T16:19:26.787Z,45.40
2019-04-20T16:21:43.696Z,46.00
2019-04-20T16:24:15.014Z,46.50
2019-04-20T16:26:47.433Z,46.40
2019-04-20T16:29:17.694Z,46.30
2019-04-20T16:31:49.078Z,47.80
2019-04-20T16:34:19.264Z,47.70
2019-04-20T16:36:51.712Z,48.60
2019-04-20T16:39:20.487Z,48.50
2019-04-20T16:41:50.705Z,48.30
2019-04-20T16:44:21.040Z,48.30
2019-04-20T16:46:52.064Z,48.60
2019-04-20T16:49:23.279Z,47.80
2019-04-20T16:51:53.004Z,48.50
2019-04-20T16:54:27.994Z,49.00
2019-04-20T16:56:58.051Z,48.40
2019-04-20T16:59:28.298Z,48.20
2019-04-20T17:01:58.248Z,48.20
2019-04-20T17:04:29.033Z,48.40
2019-04-20T17:07:16.555Z,48.20
2019-04-20T17:09:47.924Z,48.40
2019-04-20T17:12:17.787Z,48.90
2019-04-20T17:14:47.662Z,49.40
2019-04-20T17:17:17.738Z,49.60
2019-04-20T17:19:47.496Z,49.30
2019-04-20T17:22:17.404Z,49.10
2019-04-20T17:24:47.248Z,49.90
2019-04-20T17:27:24.432Z,49.50
2019-04-20T17:30:13.008Z,49.80
2019-04-20T17:32:43.527Z,50.20
2019-04-20T17:35:27.442Z,50.00
2019-04-20T17:37:46.997Z,50.00
2019-04-20T17:40:38.175Z,50.10
2019-04-20T17:43:01.704Z,50.20
2019-04-20T17:45:28.816Z,50.70
2019-04-20T17:48:06.514Z,51.00
2019-04-20T17:50:41.515Z,51.00
2019-04-20T17:53:07.482Z,50.80
2019-04-20T17:55:41.023Z,51.10
2019-04-20T17:58:12.092Z,51.10
2019-04-20T18:00:54.781Z,51.60
2019-04-20T18:03:58.879Z,51.30
2019-04-20T18:06:15.924Z,51.70
2019-04-20T18:08:46.822Z,52.00
2019-04-20T18:11:07.694Z,51.80
2019-04-20T18:13:33.669Z,52.00
2019-04-20T18:16:29.697Z,52.50
2019-04-20T18:19:03.218Z,52.90
2019-04-20T18:21:30.755Z,52.80
2019-04-20T18:24:00.456Z,53.20
2019-04-20T18:26:50.678Z,53.10
2019-04-20T18:29:20.242Z,53.10
2019-04-20T18:31:41.774Z,52.60
2019-04-20T18:34:17.943Z,52.90
2019-04-20T18:36:47.264Z,53.30
2019-04-20T18:39:18.074Z,53.30
2019-04-20T18:41:53.203Z,53.90
2019-04-20T18:44:21.087Z,54.00
2019-04-20T18:47:21.675Z,54.50
2019-04-20T18:49:38.621Z,54.40
2019-04-20T18:51:56.023Z,54.30
2019-04-20T18:54:32.150Z,54.60
2019-04-20T18:56:59.799Z,54.60
2019-04-20T18:59:35.940Z,55.40
2019-04-20T19:02:01.243Z,54.90
2019-04-20T19:04:31.922Z,55.70
2019-04-20T19:07:03.635Z,55.70
2019-04-20T19:09:34.756Z,55.70
2019-04-20T19:12:09.088Z,56.00
2019-04-20T19:14:49.927Z,55.70
2019-04-20T19:17:49.349Z,55.80
2019-04-20T19:20:14.066Z,56.80
2019-04-20T19:22:44.111Z,56.50
2019-04-20T19:25:19.837Z,58.00
2019-04-20T19:27:50.865Z,57.70
2019-04-20T19:30:27.391Z,57.90
2019-04-20T19:33:08.946Z,58.70
2019-04-20T19:35:34.978Z,57.80
2019-04-20T19:38:04.271Z,57.80
2019-04-20T19:40:33.651Z,57.80
2019-04-20T19:43:08.464Z,58.10
2019-04-20T19:45:51.266Z,57.80
2019-04-20T19:48:12.394Z,57.60
2019-04-20T19:51:08.456Z,57.90
2019-04-20T19:53:24.675Z,58.10
2019-04-20T19:55:43.888Z,58.40
2019-04-20T19:58:19.250Z,58.60
2019-04-20T20:00:51.241Z,58.70
2019-04-20T20:03:19.800Z,58.90
2019-04-20T20:05:51.823Z,59.50
2019-04-20T20:08:24.489Z,58.70
2019-04-20T20:10:52.628Z,58.80
2019-04-20T20:13:27.710Z,59.40
2019-04-20T20:16:02.453Z,59.00
2019-04-20T20:18:39.179Z,59.20
2019-04-20T20:21:12.240Z,58.90
2019-04-20T20:23:29.974Z,59.40
2019-04-20T20:26:02.320Z,58.80
2019-04-20T20:28:40.611Z,58.60
2019-04-20T20:31:13.485Z,58.70
2019-04-20T20:33:53.383Z,58.90
2019-04-20T20:36:13.993Z,58.70
2019-04-20T20:38:43.004Z,58.60
2019-04-20T20:41:18.366Z,58.50
2019-04-20T20:43:53.574Z,58.70
2019-04-20T20:46:25.476Z,58.70
2019-04-20T20:49:04.856Z,58.50
2019-04-20T20:51:37.818Z,58.50
2019-04-20T20:53:56.444Z,58.60
2019-04-20T20:56:24.140Z,58.50
2019-04-20T20:58:59.637Z,58.10
2019-04-20T21:01:23.748Z,58.30
2019-04-20T21:03:53.004Z,58.00
2019-04-20T21:06:22.422Z,58.20
2019-04-20T21:08:56.009Z,58.10
2019-04-20T21:11:27.497Z,57.60
2019-04-20T21:13:55.736Z,57.90
2019-04-20T21:16:31.516Z,57.80
2019-04-20T21:19:15.851Z,57.70
2019-04-20T21:21:42.268Z,57.70
2019-04-20T21:24:07.551Z,57.70
2019-04-20T21:26:37.597Z,57.40
2019-04-20T21:29:03.895Z,57.20
2019-04-20T21:31:34.416Z,57.70
2019-04-20T21:34:10.468Z,57.80
2019-04-20T21:36:35.254Z,57.80
2019-04-20T21:39:08.650Z,57.90
2019-04-20T21:41:40.809Z,58.70
2019-04-20T21:44:15.616Z,57.90
2019-04-20T21:46:45.760Z,58.20
2019-04-20T21:49:27.782Z,58.30
2019-04-20T21:51:50.314Z,58.60
2019-04-20T21:54:15.986Z,58.30
2019-04-20T21:56:53.861Z,57.60
2019-04-20T21:59:24.076Z,57.40
2019-04-20T22:01:58.591Z,57.80
2019-04-20T22:04:22.473Z,57.70
2019-04-20T22:06:52.028Z,57.40
2019-04-20T22:09:25.167Z,57.80
2019-04-20T22:11:53.908Z,57.80
2019-04-20T22:14:26.190Z,58.30
2019-04-20T22:16:56.871Z,59.20
2019-04-20T22:19:36.696Z,58.80
2019-04-20T22:22:08.467Z,59.00
2019-04-20T22:24:46.531Z,59.70
2019-04-20T22:27:06.250Z,60.00
2019-04-20T22:29:32.263Z,61.10
2019-04-20T22:32:11.285Z,61.80
2019-04-20T22:34:37.686Z,62.50
2019-04-20T22:37:08.527Z,63.10
2019-04-20T22:39:45.670Z,63.90
2019-04-20T22:42:14.382Z,63.80
2019-04-20T22:44:43.199Z,64.50
2019-04-20T22:47:20.797Z,64.80
2019-04-20T22:50:03.389Z,65.40
2019-04-20T22:52:29.369Z,65.50
2019-04-20T22:55:10.098Z,65.70
2019-04-20T22:57:31.616Z,65.80
2019-04-20T22:59:56.885Z,65.90
2019-04-20T23:02:22.975Z,65.90
2019-04-20T23:04:53.158Z,66.40
2019-04-20T23:07:23.043Z,67.90
2019-04-20T23:09:56.095Z,68.50
2019-04-20T23:12:26.924Z,68.30
2019-04-20T23:14:56.491Z,69.30
2019-04-20T23:17:33.471Z,69.40
2019-04-20T23:20:00.947Z,69.30
2019-04-20T23:22:36.918Z,69.00
2019-04-20T23:25:00.726Z,69.20
2019-04-20T23:27:32.128Z,69.40
2019-04-20T23:30:05.892Z,70.00
2019-04-20T23:32:33.842Z,70.30
2019-04-20T23:35:11.248Z,70.60
2019-04-20T23:37:38.536Z,71.00
2019-04-20T23:40:10.052Z,71.80
2019-04-20T23:42:51.600Z,72.70
2019-04-20T23:45:40.509Z,73.50
2019-04-20T23:48:10.460Z,73.00
2019-04-20T23:50:56.264Z,73.20
2019-04-20T23:53:28.500Z,73.50
2019-04-20T23:55:43.643Z,73.80
2019-04-20T23:58:14.708Z,73.70
